sensor_id;sensor_type;location;lat;lon;timestamp;P1;durP1;ratioP1;P2;durP2;ratioP2
60588;SDS011;46421;48.610;9.334;2024-03-23T00:53:03;10.95;;;3.13;;
60588;SDS011;46421;48.610;9.334;2024-03-23T00:55:29;8.10;;;3.33;;
60588;SDS011;46421;48.610;9.334;2024-03-23T00:57:54;5.93;;;2.70;;
60588;SDS011;46421;48.610;9.334;2024-03-23T01:00:20;7.47;;;3.20;;
60588;SDS011;46421;48.610;9.334;2024-03-23T01:02:45;6.82;;;3.30;;
60588;SDS011;46421;48.610;9.334;2024-03-23T01:05:11;8.55;;;3.05;;
60588;SDS011;46421;48.610;9.334;2024-03-23T01:07:36;6.75;;;2.63;;
60588;SDS011;46421;48.610;9.334;2024-03-23T01:10:01;7.17;;;2.77;;
60588;SDS011;46421;48.610;9.334;2024-03-23T01:12:27;7.45;;;2.75;;
60588;SDS011;46421;48.610;9.334;2024-03-23T01:14:52;5.07;;;2.55;;
60588;SDS011;46421;48.610;9.334;2024-03-23T01:17:17;6.30;;;2.43;;
60588;SDS011;46421;48.610;9.334;2024-03-23T01:19:43;6.38;;;2.55;;
60588;SDS011;46421;48.610;9.334;2024-03-23T01:22:08;4.82;;;2.08;;
60588;SDS011;46421;48.610;9.334;2024-03-23T01:24:35;5.18;;;2.38;;
60588;SDS011;46421;48.610;9.334;2024-03-23T01:27:00;8.93;;;1.98;;
60588;SDS011;46421;48.610;9.334;2024-03-23T01:29:26;6.28;;;2.22;;
60588;SDS011;46421;48.610;9.334;2024-03-23T01:31:51;5.78;;;2.22;;
60588;SDS011;46421;48.610;9.334;2024-03-23T01:34:16;6.22;;;2.20;;
60588;SDS011;46421;48.610;9.334;2024-03-23T01:36:42;3.67;;;1.83;;
60588;SDS011;46421;48.610;9.334;2024-03-23T01:39:07;6.00;;;1.67;;
60588;SDS011;46421;48.610;9.334;2024-03-23T01:41:34;5.72;;;2.10;;
60588;SDS011;46421;48.610;9.334;2024-03-23T01:44:02;3.60;;;1.35;;
60588;SDS011;46421;48.610;9.334;2024-03-23T01:46:30;4.35;;;1.83;;
60588;SDS011;46421;48.610;9.334;2024-03-23T01:48:56;4.07;;;1.85;;
60588;SDS011;46421;48.610;9.334;2024-03-23T01:51:21;5.15;;;2.08;;
60588;SDS011;46421;48.610;9.334;2024-03-23T01:53:47;4.80;;;1.90;;
60588;SDS011;46421;48.610;9.334;2024-03-23T01:56:12;5.00;;;2.13;;
60588;SDS011;46421;48.610;9.334;2024-03-23T01:58:38;7.32;;;2.50;;
60588;SDS011;46421;48.610;9.334;2024-03-23T02:01:03;5.80;;;2.15;;
60588;SDS011;46421;48.610;9.334;2024-03-23T02:03:29;4.53;;;2.03;;
60588;SDS011;46421;48.610;9.334;2024-03-23T02:05:54;5.20;;;2.03;;
60588;SDS011;46421;48.610;9.334;2024-03-23T02:08:21;6.53;;;2.28;;
60588;SDS011;46421;48.610;9.334;2024-03-23T02:10:47;5.38;;;1.95;;
60588;SDS011;46421;48.610;9.334;2024-03-23T02:15:39;4.37;;;2.03;;
60588;SDS011;46421;48.610;9.334;2024-03-23T02:18:05;7.55;;;2.58;;
60588;SDS011;46421;48.610;9.334;2024-03-23T02:20:31;5.82;;;2.78;;
60588;SDS011;46421;48.610;9.334;2024-03-23T02:22:57;6.40;;;2.88;;
60588;SDS011;46421;48.610;9.334;2024-03-23T02:25:22;6.60;;;2.78;;
60588;SDS011;46421;48.610;9.334;2024-03-23T02:27:47;6.22;;;2.70;;
60588;SDS011;46421;48.610;9.334;2024-03-23T02:30:13;6.60;;;2.67;;
60588;SDS011;46421;48.610;9.334;2024-03-23T02:32:38;7.07;;;2.72;;
60588;SDS011;46421;48.610;9.334;2024-03-23T02:35:04;4.60;;;2.40;;
60588;SDS011;46421;48.610;9.334;2024-03-23T02:37:29;8.32;;;2.97;;
60588;SDS011;46421;48.610;9.334;2024-03-23T02:39:55;6.30;;;2.63;;
60588;SDS011;46421;48.610;9.334;2024-03-23T02:42:20;6.97;;;2.90;;
60588;SDS011;46421;48.610;9.334;2024-03-23T02:44:46;7.38;;;2.90;;
60588;SDS011;46421;48.610;9.334;2024-03-23T02:47:11;5.40;;;2.47;;
60588;SDS011;46421;48.610;9.334;2024-03-23T02:49:37;6.47;;;2.80;;
60588;SDS011;46421;48.610;9.334;2024-03-23T02:52:03;7.95;;;2.47;;
60588;SDS011;46421;48.610;9.334;2024-03-23T02:54:28;6.05;;;2.42;;
60588;SDS011;46421;48.610;9.334;2024-03-23T02:56:53;4.67;;;2.27;;
60588;SDS011;46421;48.610;9.334;2024-03-23T02:59:19;6.85;;;2.90;;
60588;SDS011;46421;48.610;9.334;2024-03-23T03:01:44;7.07;;;2.85;;
60588;SDS011;46421;48.610;9.334;2024-03-23T03:04:09;4.60;;;1.90;;
60588;SDS011;46421;48.610;9.334;2024-03-23T03:06:35;6.03;;;2.40;;
60588;SDS011;46421;48.610;9.334;2024-03-23T03:09:00;4.87;;;1.77;;
60588;SDS011;46421;48.610;9.334;2024-03-23T03:11:26;7.85;;;2.25;;
60588;SDS011;46421;48.610;9.334;2024-03-23T03:13:51;5.55;;;1.92;;
60588;SDS011;46421;48.610;9.334;2024-03-23T03:16:16;5.05;;;2.20;;
60588;SDS011;46421;48.610;9.334;2024-03-23T03:18:42;5.43;;;1.73;;
60588;SDS011;46421;48.610;9.334;2024-03-23T03:21:08;4.25;;;1.77;;
60588;SDS011;46421;48.610;9.334;2024-03-23T03:23:39;4.07;;;1.60;;
60588;SDS011;46421;48.610;9.334;2024-03-23T03:26:04;5.68;;;1.65;;
60588;SDS011;46421;48.610;9.334;2024-03-23T03:28:30;3.67;;;1.60;;
60588;SDS011;46421;48.610;9.334;2024-03-23T03:30:57;3.45;;;1.65;;
60588;SDS011;46421;48.610;9.334;2024-03-23T03:33:23;3.45;;;1.38;;
60588;SDS011;46421;48.610;9.334;2024-03-23T03:35:49;5.07;;;1.55;;
60588;SDS011;46421;48.610;9.334;2024-03-23T03:38:14;3.53;;;1.42;;
60588;SDS011;46421;48.610;9.334;2024-03-23T03:40:39;4.30;;;1.50;;
60588;SDS011;46421;48.610;9.334;2024-03-23T03:43:06;3.83;;;1.60;;
60588;SDS011;46421;48.610;9.334;2024-03-23T03:45:32;4.05;;;1.50;;
60588;SDS011;46421;48.610;9.334;2024-03-23T03:47:57;4.20;;;1.52;;
60588;SDS011;46421;48.610;9.334;2024-03-23T03:50:24;5.28;;;1.80;;
60588;SDS011;46421;48.610;9.334;2024-03-23T03:52:49;3.17;;;1.40;;
60588;SDS011;46421;48.610;9.334;2024-03-23T03:55:15;4.82;;;1.50;;
60588;SDS011;46421;48.610;9.334;2024-03-23T03:57:41;4.22;;;1.60;;
60588;SDS011;46421;48.610;9.334;2024-03-23T04:00:06;4.53;;;1.75;;
60588;SDS011;46421;48.610;9.334;2024-03-23T04:02:36;4.90;;;1.85;;
60588;SDS011;46421;48.610;9.334;2024-03-23T04:05:02;3.40;;;1.42;;
60588;SDS011;46421;48.610;9.334;2024-03-23T04:07:28;3.38;;;1.40;;
60588;SDS011;46421;48.610;9.334;2024-03-23T04:09:53;4.07;;;1.60;;
60588;SDS011;46421;48.610;9.334;2024-03-23T04:12:19;4.50;;;1.20;;
60588;SDS011;46421;48.610;9.334;2024-03-23T04:14:45;3.65;;;1.50;;
60588;SDS011;46421;48.610;9.334;2024-03-23T04:17:10;4.55;;;1.80;;
60588;SDS011;46421;48.610;9.334;2024-03-23T04:19:36;2.97;;;1.30;;
60588;SDS011;46421;48.610;9.334;2024-03-23T04:22:01;4.95;;;1.60;;
60588;SDS011;46421;48.610;9.334;2024-03-23T04:24:26;4.07;;;1.40;;
60588;SDS011;46421;48.610;9.334;2024-03-23T04:26:52;3.53;;;1.38;;
60588;SDS011;46421;48.610;9.334;2024-03-23T04:29:17;5.50;;;1.33;;
60588;SDS011;46421;48.610;9.334;2024-03-23T04:31:42;4.38;;;1.38;;
60588;SDS011;46421;48.610;9.334;2024-03-23T04:34:08;3.58;;;1.40;;
60588;SDS011;46421;48.610;9.334;2024-03-23T04:36:33;4.53;;;1.40;;
60588;SDS011;46421;48.610;9.334;2024-03-23T04:38:59;3.80;;;1.40;;
60588;SDS011;46421;48.610;9.334;2024-03-23T04:41:25;4.63;;;1.63;;
60588;SDS011;46421;48.610;9.334;2024-03-23T04:43:51;3.95;;;1.40;;
60588;SDS011;46421;48.610;9.334;2024-03-23T04:46:16;3.85;;;1.48;;
60588;SDS011;46421;48.610;9.334;2024-03-23T04:48:41;5.18;;;1.58;;
60588;SDS011;46421;48.610;9.334;2024-03-23T04:51:09;3.90;;;1.50;;
60588;SDS011;46421;48.610;9.334;2024-03-23T04:53:35;4.47;;;1.30;;
60588;SDS011;46421;48.610;9.334;2024-03-23T04:56:01;3.67;;;1.90;;
60588;SDS011;46421;48.610;9.334;2024-03-23T04:58:26;5.65;;;1.52;;
60588;SDS011;46421;48.610;9.334;2024-03-23T05:00:55;5.25;;;1.73;;
60588;SDS011;46421;48.610;9.334;2024-03-23T05:03:20;6.65;;;2.03;;
60588;SDS011;46421;48.610;9.334;2024-03-23T05:05:46;5.35;;;1.80;;
60588;SDS011;46421;48.610;9.334;2024-03-23T05:08:12;5.25;;;1.80;;
60588;SDS011;46421;48.610;9.334;2024-03-23T05:10:37;4.18;;;1.80;;
60588;SDS011;46421;48.610;9.334;2024-03-23T05:13:03;4.47;;;1.63;;
60588;SDS011;46421;48.610;9.334;2024-03-23T05:15:28;4.03;;;1.60;;
60588;SDS011;46421;48.610;9.334;2024-03-23T05:17:55;4.05;;;1.70;;
60588;SDS011;46421;48.610;9.334;2024-03-23T05:20:20;4.05;;;1.80;;
60588;SDS011;46421;48.610;9.334;2024-03-23T05:22:46;5.32;;;2.10;;
60588;SDS011;46421;48.610;9.334;2024-03-23T05:25:11;7.00;;;2.47;;
60588;SDS011;46421;48.610;9.334;2024-03-23T05:27:37;4.07;;;1.70;;
60588;SDS011;46421;48.610;9.334;2024-03-23T05:30:02;4.55;;;1.88;;
60588;SDS011;46421;48.610;9.334;2024-03-23T05:32:29;4.88;;;1.80;;
60588;SDS011;46421;48.610;9.334;2024-03-23T05:34:54;6.63;;;2.20;;
60588;SDS011;46421;48.610;9.334;2024-03-23T05:37:22;6.90;;;2.55;;
60588;SDS011;46421;48.610;9.334;2024-03-23T05:39:48;6.43;;;2.22;;
60588;SDS011;46421;48.610;9.334;2024-03-23T05:42:15;4.70;;;2.08;;
60588;SDS011;46421;48.610;9.334;2024-03-23T05:44:42;6.35;;;2.25;;
60588;SDS011;46421;48.610;9.334;2024-03-23T05:47:11;5.88;;;2.08;;
60588;SDS011;46421;48.610;9.334;2024-03-23T05:49:41;5.30;;;2.60;;
60588;SDS011;46421;48.610;9.334;2024-03-23T05:52:07;8.38;;;3.05;;
60588;SDS011;46421;48.610;9.334;2024-03-23T05:54:35;7.85;;;2.92;;
60588;SDS011;46421;48.610;9.334;2024-03-23T05:57:01;5.93;;;2.80;;
60588;SDS011;46421;48.610;9.334;2024-03-23T05:59:26;6.10;;;2.58;;
60588;SDS011;46421;48.610;9.334;2024-03-23T06:01:52;8.10;;;3.40;;
60588;SDS011;46421;48.610;9.334;2024-03-23T06:04:17;6.07;;;2.80;;
60588;SDS011;46421;48.610;9.334;2024-03-23T06:06:43;6.40;;;2.67;;
60588;SDS011;46421;48.610;9.334;2024-03-23T06:09:08;6.13;;;2.50;;
60588;SDS011;46421;48.610;9.334;2024-03-23T06:11:33;6.18;;;2.78;;
60588;SDS011;46421;48.610;9.334;2024-03-23T06:13:59;6.55;;;2.50;;
60588;SDS011;46421;48.610;9.334;2024-03-23T06:16:24;8.90;;;2.83;;
60588;SDS011;46421;48.610;9.334;2024-03-23T06:18:50;6.15;;;2.83;;
60588;SDS011;46421;48.610;9.334;2024-03-23T06:21:16;6.47;;;2.67;;
60588;SDS011;46421;48.610;9.334;2024-03-23T06:23:41;7.45;;;3.28;;
60588;SDS011;46421;48.610;9.334;2024-03-23T06:26:07;7.82;;;2.78;;
60588;SDS011;46421;48.610;9.334;2024-03-23T06:28:32;6.77;;;2.43;;
60588;SDS011;46421;48.610;9.334;2024-03-23T06:30:57;6.35;;;2.45;;
60588;SDS011;46421;48.610;9.334;2024-03-23T06:33:23;4.93;;;2.00;;
60588;SDS011;46421;48.610;9.334;2024-03-23T06:35:52;6.18;;;2.28;;
60588;SDS011;46421;48.610;9.334;2024-03-23T06:38:17;7.03;;;2.50;;
60588;SDS011;46421;48.610;9.334;2024-03-23T06:40:43;5.35;;;2.22;;
60588;SDS011;46421;48.610;9.334;2024-03-23T06:43:13;5.13;;;1.80;;
60588;SDS011;46421;48.610;9.334;2024-03-23T06:45:38;5.75;;;1.90;;
60588;SDS011;46421;48.610;9.334;2024-03-23T06:48:04;5.40;;;1.85;;
60588;SDS011;46421;48.610;9.334;2024-03-23T06:50:33;4.85;;;1.63;;
60588;SDS011;46421;48.610;9.334;2024-03-23T06:52:58;4.70;;;1.45;;
60588;SDS011;46421;48.610;9.334;2024-03-23T06:55:24;4.28;;;1.50;;
60588;SDS011;46421;48.610;9.334;2024-03-23T06:57:52;3.33;;;1.33;;
60588;SDS011;46421;48.610;9.334;2024-03-23T07:00:17;4.20;;;1.17;;
60588;SDS011;46421;48.610;9.334;2024-03-23T07:02:43;2.22;;;0.85;;
60588;SDS011;46421;48.610;9.334;2024-03-23T07:05:09;2.95;;;0.90;;
60588;SDS011;46421;48.610;9.334;2024-03-23T07:07:35;2.97;;;0.80;;
60588;SDS011;46421;48.610;9.334;2024-03-23T07:10:01;2.63;;;0.80;;
60588;SDS011;46421;48.610;9.334;2024-03-23T07:12:26;1.63;;;0.70;;
60588;SDS011;46421;48.610;9.334;2024-03-23T07:14:52;2.08;;;0.60;;
60588;SDS011;46421;48.610;9.334;2024-03-23T07:17:17;1.50;;;0.50;;
60588;SDS011;46421;48.610;9.334;2024-03-23T07:19:43;1.83;;;0.60;;
60588;SDS011;46421;48.610;9.334;2024-03-23T07:22:08;1.80;;;0.70;;
60588;SDS011;46421;48.610;9.334;2024-03-23T07:24:34;2.15;;;0.52;;
60588;SDS011;46421;48.610;9.334;2024-03-23T07:26:59;0.47;;;0.30;;
60588;SDS011;46421;48.610;9.334;2024-03-23T07:29:25;1.55;;;0.50;;
60588;SDS011;46421;48.610;9.334;2024-03-23T07:31:50;0.93;;;0.47;;
60588;SDS011;46421;48.610;9.334;2024-03-23T07:34:15;1.55;;;0.60;;
60588;SDS011;46421;48.610;9.334;2024-03-23T07:36:41;0.80;;;0.40;;
60588;SDS011;46421;48.610;9.334;2024-03-23T07:39:06;0.30;;;0.30;;
60588;SDS011;46421;48.610;9.334;2024-03-23T07:41:33;0.28;;;0.20;;
60588;SDS011;46421;48.610;9.334;2024-03-23T07:43:58;0.63;;;0.22;;
60588;SDS011;46421;48.610;9.334;2024-03-23T07:46:24;1.55;;;0.30;;
60588;SDS011;46421;48.610;9.334;2024-03-23T07:48:50;0.57;;;0.20;;
60588;SDS011;46421;48.610;9.334;2024-03-23T07:51:17;0.50;;;0.20;;
60588;SDS011;46421;48.610;9.334;2024-03-23T07:53:44;0.17;;;0.13;;
60588;SDS011;46421;48.610;9.334;2024-03-23T07:56:19;0.75;;;0.32;;
60588;SDS011;46421;48.610;9.334;2024-03-23T07:58:45;0.10;;;0.10;;
60588;SDS011;46421;48.610;9.334;2024-03-23T08:01:11;0.38;;;0.20;;
60588;SDS011;46421;48.610;9.334;2024-03-23T08:03:37;0.32;;;0.10;;
60588;SDS011;46421;48.610;9.334;2024-03-23T08:06:16;0.03;;;0.03;;
60588;SDS011;46421;48.610;9.334;2024-03-23T08:08:46;0.50;;;0.20;;
60588;SDS011;46421;48.610;9.334;2024-03-23T08:11:12;0.15;;;0.15;;
60588;SDS011;46421;48.610;9.334;2024-03-23T08:13:39;0.00;;;0.00;;
60588;SDS011;46421;48.610;9.334;2024-03-23T08:16:05;0.20;;;0.10;;
60588;SDS011;46421;48.610;9.334;2024-03-23T08:18:31;0.55;;;0.13;;
60588;SDS011;46421;48.610;9.334;2024-03-23T08:21:00;0.43;;;0.20;;
60588;SDS011;46421;48.610;9.334;2024-03-23T08:23:27;0.93;;;0.20;;
60588;SDS011;46421;48.610;9.334;2024-03-23T08:25:57;0.20;;;0.10;;
60588;SDS011;46421;48.610;9.334;2024-03-23T08:28:25;0.00;;;0.00;;
60588;SDS011;46421;48.610;9.334;2024-03-23T08:30:52;0.05;;;0.05;;
60588;SDS011;46421;48.610;9.334;2024-03-23T08:33:18;0.10;;;0.10;;
60588;SDS011;46421;48.610;9.334;2024-03-23T08:35:52;0.75;;;0.30;;
60588;SDS011;46421;48.610;9.334;2024-03-23T08:38:21;0.20;;;0.20;;
60588;SDS011;46421;48.610;9.334;2024-03-23T08:40:47;0.20;;;0.20;;
60588;SDS011;46421;48.610;9.334;2024-03-23T08:43:12;0.80;;;0.22;;
60588;SDS011;46421;48.610;9.334;2024-03-23T08:45:38;0.32;;;0.20;;
60588;SDS011;46421;48.610;9.334;2024-03-23T08:48:03;0.28;;;0.20;;
60588;SDS011;46421;48.610;9.334;2024-03-23T08:50:29;1.60;;;0.40;;
60588;SDS011;46421;48.610;9.334;2024-03-23T08:52:54;0.32;;;0.32;;
60588;SDS011;46421;48.610;9.334;2024-03-23T08:55:20;1.23;;;0.38;;
60588;SDS011;46421;48.610;9.334;2024-03-23T08:57:45;1.60;;;0.52;;
60588;SDS011;46421;48.610;9.334;2024-03-23T09:00:10;2.50;;;0.50;;
60588;SDS011;46421;48.610;9.334;2024-03-23T09:02:36;0.82;;;0.40;;
60588;SDS011;46421;48.610;9.334;2024-03-23T09:05:02;1.17;;;0.45;;
60588;SDS011;46421;48.610;9.334;2024-03-23T09:07:30;0.55;;;0.30;;
60588;SDS011;46421;48.610;9.334;2024-03-23T09:09:56;1.55;;;0.63;;
60588;SDS011;46421;48.610;9.334;2024-03-23T09:12:21;1.13;;;0.50;;
60588;SDS011;46421;48.610;9.334;2024-03-23T09:14:47;2.58;;;0.68;;
60588;SDS011;46421;48.610;9.334;2024-03-23T09:17:12;1.65;;;0.40;;
60588;SDS011;46421;48.610;9.334;2024-03-23T09:19:38;0.87;;;0.37;;
60588;SDS011;46421;48.610;9.334;2024-03-23T09:22:04;1.63;;;0.60;;
60588;SDS011;46421;48.610;9.334;2024-03-23T09:24:30;1.45;;;0.68;;
60588;SDS011;46421;48.610;9.334;2024-03-23T09:29:22;1.47;;;0.80;;
60588;SDS011;46421;48.610;9.334;2024-03-23T09:31:47;3.33;;;0.88;;
60588;SDS011;46421;48.610;9.334;2024-03-23T09:34:12;2.17;;;1.00;;
60588;SDS011;46421;48.610;9.334;2024-03-23T09:36:38;2.75;;;0.88;;
60588;SDS011;46421;48.610;9.334;2024-03-23T09:39:03;3.53;;;0.68;;
60588;SDS011;46421;48.610;9.334;2024-03-23T09:41:30;3.40;;;1.00;;
60588;SDS011;46421;48.610;9.334;2024-03-23T09:43:56;2.53;;;0.93;;
60588;SDS011;46421;48.610;9.334;2024-03-23T09:46:21;4.20;;;1.08;;
60588;SDS011;46421;48.610;9.334;2024-03-23T09:48:47;4.30;;;1.15;;
60588;SDS011;46421;48.610;9.334;2024-03-23T09:51:12;3.95;;;1.10;;
60588;SDS011;46421;48.610;9.334;2024-03-23T09:53:37;3.17;;;1.00;;
60588;SDS011;46421;48.610;9.334;2024-03-23T09:56:04;3.08;;;1.00;;
60588;SDS011;46421;48.610;9.334;2024-03-23T09:58:29;3.53;;;1.13;;
60588;SDS011;46421;48.610;9.334;2024-03-23T10:00:54;3.90;;;1.63;;
60588;SDS011;46421;48.610;9.334;2024-03-23T10:03:20;3.75;;;1.50;;
60588;SDS011;46421;48.610;9.334;2024-03-23T10:05:45;3.17;;;1.10;;
60588;SDS011;46421;48.610;9.334;2024-03-23T10:10:39;3.88;;;1.30;;
60588;SDS011;46421;48.610;9.334;2024-03-23T10:13:07;2.70;;;1.10;;
60588;SDS011;46421;48.610;9.334;2024-03-23T10:15:34;5.90;;;1.73;;
60588;SDS011;46421;48.610;9.334;2024-03-23T10:18:06;4.78;;;1.35;;
60588;SDS011;46421;48.610;9.334;2024-03-23T10:20:42;3.47;;;1.25;;
60588;SDS011;46421;48.610;9.334;2024-03-23T10:23:18;4.82;;;1.63;;
60588;SDS011;46421;48.610;9.334;2024-03-23T10:25:43;4.22;;;1.38;;
60588;SDS011;46421;48.610;9.334;2024-03-23T10:28:09;3.92;;;1.30;;
60588;SDS011;46421;48.610;9.334;2024-03-23T10:30:34;3.45;;;1.50;;
60588;SDS011;46421;48.610;9.334;2024-03-23T10:33:07;4.65;;;1.52;;
60588;SDS011;46421;48.610;9.334;2024-03-23T10:37:58;5.13;;;1.63;;
60588;SDS011;46421;48.610;9.334;2024-03-23T10:40:23;5.72;;;1.50;;
60588;SDS011;46421;48.610;9.334;2024-03-23T10:42:50;5.20;;;1.70;;
60588;SDS011;46421;48.610;9.334;2024-03-23T10:45:17;4.25;;;1.67;;
60588;SDS011;46421;48.610;9.334;2024-03-23T10:47:42;5.50;;;2.03;;
60588;SDS011;46421;48.610;9.334;2024-03-23T10:50:08;6.10;;;1.92;;
60588;SDS011;46421;48.610;9.334;2024-03-23T10:52:33;5.22;;;1.55;;
60588;SDS011;46421;48.610;9.334;2024-03-23T10:54:59;5.28;;;1.70;;
60588;SDS011;46421;48.610;9.334;2024-03-23T10:57:27;4.70;;;1.60;;
60588;SDS011;46421;48.610;9.334;2024-03-23T10:59:56;6.28;;;1.63;;
60588;SDS011;46421;48.610;9.334;2024-03-23T11:02:21;6.43;;;1.48;;
60588;SDS011;46421;48.610;9.334;2024-03-23T11:04:47;6.47;;;1.58;;
60588;SDS011;46421;48.610;9.334;2024-03-23T11:07:32;6.60;;;1.42;;
60588;SDS011;46421;48.610;9.334;2024-03-23T11:09:58;5.38;;;1.10;;
60588;SDS011;46421;48.610;9.334;2024-03-23T11:12:28;1.45;;;0.57;;
60588;SDS011;46421;48.610;9.334;2024-03-23T11:15:00;2.90;;;0.50;;
60588;SDS011;46421;48.610;9.334;2024-03-23T11:17:27;1.70;;;0.65;;
60588;SDS011;46421;48.610;9.334;2024-03-23T11:25:24;2.10;;;0.60;;
60588;SDS011;46421;48.610;9.334;2024-03-23T11:27:51;2.92;;;0.90;;
60588;SDS011;46421;48.610;9.334;2024-03-23T11:32:43;2.28;;;0.63;;
60588;SDS011;46421;48.610;9.334;2024-03-23T11:37:35;2.00;;;0.80;;
60588;SDS011;46421;48.610;9.334;2024-03-23T11:40:16;2.05;;;0.60;;
60588;SDS011;46421;48.610;9.334;2024-03-23T11:42:42;3.60;;;1.10;;
60588;SDS011;46421;48.610;9.334;2024-03-23T11:45:08;2.25;;;0.63;;
60588;SDS011;46421;48.610;9.334;2024-03-23T11:52:24;3.67;;;1.05;;
60588;SDS011;46421;48.610;9.334;2024-03-23T11:54:50;5.35;;;0.82;;
60588;SDS011;46421;48.610;9.334;2024-03-23T11:57:15;3.03;;;1.03;;
60588;SDS011;46421;48.610;9.334;2024-03-23T11:59:41;2.38;;;0.68;;
60588;SDS011;46421;48.610;9.334;2024-03-23T12:02:07;3.33;;;0.90;;
60588;SDS011;46421;48.610;9.334;2024-03-23T12:04:33;3.67;;;0.85;;
60588;SDS011;46421;48.610;9.334;2024-03-23T12:07:14;2.53;;;0.70;;
60588;SDS011;46421;48.610;9.334;2024-03-23T12:09:46;4.03;;;0.95;;
60588;SDS011;46421;48.610;9.334;2024-03-23T12:12:16;4.97;;;0.98;;
60588;SDS011;46421;48.610;9.334;2024-03-23T12:14:45;1.95;;;0.60;;
60588;SDS011;46421;48.610;9.334;2024-03-23T12:17:14;4.20;;;0.80;;
60588;SDS011;46421;48.610;9.334;2024-03-23T12:19:40;2.90;;;1.00;;
60588;SDS011;46421;48.610;9.334;2024-03-23T12:22:07;10.35;;;1.05;;
60588;SDS011;46421;48.610;9.334;2024-03-23T12:24:33;3.22;;;1.10;;
60588;SDS011;46421;48.610;9.334;2024-03-23T12:29:30;4.53;;;0.82;;
60588;SDS011;46421;48.610;9.334;2024-03-23T12:31:59;4.18;;;0.70;;
60588;SDS011;46421;48.610;9.334;2024-03-23T12:34:24;2.85;;;0.75;;
60588;SDS011;46421;48.610;9.334;2024-03-23T12:36:50;3.03;;;0.90;;
60588;SDS011;46421;48.610;9.334;2024-03-23T12:39:15;5.13;;;1.05;;
60588;SDS011;46421;48.610;9.334;2024-03-23T12:41:40;4.77;;;1.37;;
60588;SDS011;46421;48.610;9.334;2024-03-23T12:44:06;2.45;;;0.68;;
60588;SDS011;46421;48.610;9.334;2024-03-23T12:46:33;2.38;;;0.80;;
60588;SDS011;46421;48.610;9.334;2024-03-23T12:48:58;5.68;;;1.13;;
60588;SDS011;46421;48.610;9.334;2024-03-23T12:51:24;4.10;;;1.02;;
60588;SDS011;46421;48.610;9.334;2024-03-23T12:53:50;5.18;;;1.30;;
60588;SDS011;46421;48.610;9.334;2024-03-23T12:56:16;5.13;;;0.95;;
60588;SDS011;46421;48.610;9.334;2024-03-23T12:58:42;4.43;;;0.90;;
60588;SDS011;46421;48.610;9.334;2024-03-23T13:01:07;6.50;;;0.95;;
60588;SDS011;46421;48.610;9.334;2024-03-23T13:03:32;4.63;;;1.02;;
60588;SDS011;46421;48.610;9.334;2024-03-23T13:05:58;2.97;;;0.90;;
60588;SDS011;46421;48.610;9.334;2024-03-23T13:08:23;3.55;;;1.20;;
60588;SDS011;46421;48.610;9.334;2024-03-23T13:10:51;3.93;;;1.20;;
60588;SDS011;46421;48.610;9.334;2024-03-23T13:13:17;3.90;;;1.00;;
60588;SDS011;46421;48.610;9.334;2024-03-23T13:15:42;2.92;;;0.82;;
60588;SDS011;46421;48.610;9.334;2024-03-23T13:18:08;3.20;;;0.95;;
60588;SDS011;46421;48.610;9.334;2024-03-23T13:20:35;3.58;;;1.08;;
60588;SDS011;46421;48.610;9.334;2024-03-23T13:23:00;4.85;;;0.90;;
60588;SDS011;46421;48.610;9.334;2024-03-23T13:25:26;2.08;;;0.57;;
60588;SDS011;46421;48.610;9.334;2024-03-23T13:27:51;3.50;;;1.17;;
60588;SDS011;46421;48.610;9.334;2024-03-23T13:30:17;1.45;;;0.80;;
60588;SDS011;46421;48.610;9.334;2024-03-23T13:32:42;4.97;;;1.10;;
60588;SDS011;46421;48.610;9.334;2024-03-23T13:35:07;3.97;;;1.10;;
60588;SDS011;46421;48.610;9.334;2024-03-23T13:37:33;5.53;;;1.10;;
60588;SDS011;46421;48.610;9.334;2024-03-23T13:39:58;3.45;;;1.10;;
60588;SDS011;46421;48.610;9.334;2024-03-23T13:42:24;2.63;;;0.80;;
60588;SDS011;46421;48.610;9.334;2024-03-23T13:44:51;2.80;;;1.02;;
60588;SDS011;46421;48.610;9.334;2024-03-23T13:47:16;3.47;;;1.13;;
60588;SDS011;46421;48.610;9.334;2024-03-23T13:49:41;5.22;;;1.15;;
60588;SDS011;46421;48.610;9.334;2024-03-23T13:52:07;3.53;;;0.50;;
60588;SDS011;46421;48.610;9.334;2024-03-23T13:54:33;1.98;;;0.68;;
60588;SDS011;46421;48.610;9.334;2024-03-23T13:56:58;1.38;;;0.50;;
60588;SDS011;46421;48.610;9.334;2024-03-23T13:59:24;1.52;;;0.45;;
60588;SDS011;46421;48.610;9.334;2024-03-23T14:01:49;2.95;;;0.75;;
60588;SDS011;46421;48.610;9.334;2024-03-23T14:04:16;3.03;;;0.60;;
60588;SDS011;46421;48.610;9.334;2024-03-23T14:06:48;1.23;;;0.45;;
60588;SDS011;46421;48.610;9.334;2024-03-23T14:09:14;2.33;;;0.75;;
60588;SDS011;46421;48.610;9.334;2024-03-23T14:11:40;3.00;;;0.82;;
60588;SDS011;46421;48.610;9.334;2024-03-23T14:14:08;2.00;;;1.17;;
60588;SDS011;46421;48.610;9.334;2024-03-23T14:16:34;2.35;;;0.73;;
60588;SDS011;46421;48.610;9.334;2024-03-23T14:18:59;4.38;;;0.73;;
60588;SDS011;46421;48.610;9.334;2024-03-23T14:21:25;2.75;;;0.77;;
60588;SDS011;46421;48.610;9.334;2024-03-23T14:23:50;1.77;;;0.60;;
60588;SDS011;46421;48.610;9.334;2024-03-23T14:26:16;3.78;;;0.63;;
60588;SDS011;46421;48.610;9.334;2024-03-23T14:28:41;4.55;;;0.50;;
60588;SDS011;46421;48.610;9.334;2024-03-23T14:31:06;1.77;;;0.57;;
60588;SDS011;46421;48.610;9.334;2024-03-23T14:33:38;1.23;;;0.50;;
60588;SDS011;46421;48.610;9.334;2024-03-23T14:36:06;2.92;;;0.45;;
60588;SDS011;46421;48.610;9.334;2024-03-23T14:38:32;2.22;;;0.65;;
60588;SDS011;46421;48.610;9.334;2024-03-23T14:40:58;1.00;;;0.55;;
60588;SDS011;46421;48.610;9.334;2024-03-23T14:43:24;2.45;;;0.80;;
60588;SDS011;46421;48.610;9.334;2024-03-23T14:46:09;2.90;;;0.68;;
60588;SDS011;46421;48.610;9.334;2024-03-23T14:48:35;2.45;;;0.60;;
60588;SDS011;46421;48.610;9.334;2024-03-23T14:51:01;2.88;;;0.80;;
60588;SDS011;46421;48.610;9.334;2024-03-23T14:53:29;3.63;;;0.70;;
60588;SDS011;46421;48.610;9.334;2024-03-23T14:55:55;1.67;;;0.70;;
60588;SDS011;46421;48.610;9.334;2024-03-23T14:58:21;2.38;;;0.60;;
60588;SDS011;46421;48.610;9.334;2024-03-23T15:00:47;3.38;;;0.80;;
60588;SDS011;46421;48.610;9.334;2024-03-23T15:03:13;2.35;;;0.65;;
60588;SDS011;46421;48.610;9.334;2024-03-23T15:05:39;4.03;;;0.80;;
60588;SDS011;46421;48.610;9.334;2024-03-23T15:08:05;1.90;;;0.70;;
60588;SDS011;46421;48.610;9.334;2024-03-23T15:10:32;1.65;;;0.73;;
60588;SDS011;46421;48.610;9.334;2024-03-23T15:12:58;2.25;;;0.60;;
60588;SDS011;46421;48.610;9.334;2024-03-23T15:15:23;4.23;;;0.70;;
60588;SDS011;46421;48.610;9.334;2024-03-23T15:17:49;0.90;;;0.35;;
60588;SDS011;46421;48.610;9.334;2024-03-23T15:20:15;1.70;;;0.50;;
60588;SDS011;46421;48.610;9.334;2024-03-23T15:22:41;1.02;;;0.30;;
60588;SDS011;46421;48.610;9.334;2024-03-23T15:25:07;3.03;;;0.70;;
60588;SDS011;46421;48.610;9.334;2024-03-23T15:30:00;0.17;;;0.17;;
60588;SDS011;46421;48.610;9.334;2024-03-23T15:32:25;0.98;;;0.45;;
60588;SDS011;46421;48.610;9.334;2024-03-23T15:34:51;1.15;;;0.40;;
60588;SDS011;46421;48.610;9.334;2024-03-23T15:37:17;2.13;;;0.40;;
60588;SDS011;46421;48.610;9.334;2024-03-23T15:39:43;0.95;;;0.40;;
60588;SDS011;46421;48.610;9.334;2024-03-23T15:42:08;0.32;;;0.20;;
60588;SDS011;46421;48.610;9.334;2024-03-23T15:44:33;0.93;;;0.57;;
60588;SDS011;46421;48.610;9.334;2024-03-23T15:46:59;0.93;;;0.43;;
60588;SDS011;46421;48.610;9.334;2024-03-23T15:49:24;2.28;;;0.70;;
60588;SDS011;46421;48.610;9.334;2024-03-23T15:51:49;1.50;;;0.57;;
60588;SDS011;46421;48.610;9.334;2024-03-23T15:54:15;3.20;;;0.55;;
60588;SDS011;46421;48.610;9.334;2024-03-23T15:56:40;1.42;;;0.70;;
60588;SDS011;46421;48.610;9.334;2024-03-23T15:59:05;0.95;;;0.35;;
60588;SDS011;46421;48.610;9.334;2024-03-23T16:01:34;1.92;;;0.73;;
60588;SDS011;46421;48.610;9.334;2024-03-23T16:04:00;1.95;;;0.52;;